createdAt,value
2017-10-19T00:01:04.163Z,11.81
2017-10-19T00:06:04.127Z,11.67
2017-10-19T00:11:04.110Z,11.67
2017-10-19T00:16:03.933Z,11.69
2017-10-19T00:21:04.293Z,11.69
2017-10-19T00:26:04.139Z,11.69
2017-10-19T00:31:03.550Z,11.67
2017-10-19T00:36:04.302Z,11.67
2017-10-19T00:41:04.151Z,11.69
2017-10-19T00:46:03.767Z,11.69
2017-10-19T00:51:03.552Z,11.69
2017-10-19T00:56:04.333Z,11.69
2017-10-19T01:01:04.091Z,11.69
2017-10-19T01:06:03.872Z,11.69
2017-10-19T01:11:04.079Z,11.67
2017-10-19T01:16:03.819Z,11.67
2017-10-19T01:21:03.624Z,11.69
2017-10-19T01:26:03.454Z,11.67
2017-10-19T01:31:04.233Z,11.67
2017-10-19T01:36:03.989Z,11.67
2017-10-19T01:41:04.213Z,11.67
2017-10-19T01:46:03.965Z,11.67
2017-10-19T01:51:03.742Z,11.67
2017-10-19T01:56:03.496Z,11.67
2017-10-19T02:01:04.317Z,11.69
2017-10-19T02:06:04.095Z,11.67
2017-10-19T02:11:04.301Z,11.67
2017-10-19T02:16:04.105Z,11.67
2017-10-19T02:21:04.004Z,11.69
2017-10-19T02:26:03.673Z,11.67
2017-10-19T02:31:03.438Z,11.67
2017-10-19T02:36:04.213Z,11.67
2017-10-19T02:41:03.426Z,11.67
2017-10-19T02:46:04.133Z,11.67
2017-10-19T02:51:03.913Z,11.69
2017-10-19T02:56:03.664Z,11.67
2017-10-19T03:01:03.459Z,11.67
2017-10-19T03:06:04.142Z,11.67
2017-10-19T03:11:04.359Z,11.67
2017-10-19T03:16:04.183Z,11.67
2017-10-19T03:21:03.950Z,11.67
2017-10-19T03:26:03.732Z,11.67
2017-10-19T03:31:03.496Z,11.67
2017-10-19T03:36:04.264Z,11.67
2017-10-19T03:41:03.443Z,11.67
2017-10-19T03:46:04.222Z,11.67
2017-10-19T03:51:03.975Z,11.65
2017-10-19T03:56:03.740Z,11.74
2017-10-19T04:01:03.538Z,11.72
2017-10-19T04:06:04.244Z,11.70
2017-10-19T04:11:03.486Z,11.79
2017-10-19T04:16:04.241Z,11.79
2017-10-19T04:21:04.112Z,11.77
2017-10-19T04:26:03.595Z,11.77
2017-10-19T04:31:04.368Z,11.77
2017-10-19T04:36:04.128Z,11.77
2017-10-19T04:41:04.326Z,11.77
2017-10-19T04:46:04.186Z,11.77
2017-10-19T04:51:03.986Z,11.77
2017-10-19T04:56:03.806Z,11.79
2017-10-19T05:01:03.524Z,11.79
2017-10-19T05:06:04.335Z,11.82
2017-10-19T05:11:03.444Z,11.82
2017-10-19T05:16:04.249Z,11.72
2017-10-19T05:21:04.065Z,11.72
2017-10-19T05:26:03.891Z,11.72
2017-10-19T05:31:03.611Z,11.72
2017-10-19T05:36:03.600Z,11.72
2017-10-19T05:41:03.730Z,11.72
2017-10-19T05:46:03.552Z,11.72
2017-10-19T05:51:04.300Z,11.84
2017-10-19T05:56:04.075Z,11.72
2017-10-19T06:01:03.872Z,11.84
2017-10-19T06:06:03.659Z,11.82
2017-10-19T06:11:03.883Z,11.82
2017-10-19T06:16:03.612Z,11.82
2017-10-19T06:21:03.465Z,11.82
2017-10-19T06:26:04.263Z,11.82
2017-10-19T06:31:04.008Z,11.84
2017-10-19T06:36:03.796Z,11.82
2017-10-19T06:41:03.959Z,11.72
2017-10-19T06:46:03.742Z,11.70
2017-10-19T06:51:03.548Z,11.72
2017-10-19T06:56:04.357Z,11.72
2017-10-19T07:01:04.123Z,11.72
2017-10-19T07:06:03.943Z,11.74
2017-10-19T07:11:04.063Z,11.68
2017-10-19T07:16:03.843Z,11.74
2017-10-19T07:21:03.740Z,11.74
2017-10-19T07:26:03.570Z,11.74
2017-10-19T07:31:04.342Z,11.74
2017-10-19T07:36:04.152Z,11.74
2017-10-19T07:41:03.381Z,11.72
2017-10-19T07:46:04.217Z,11.72
2017-10-19T07:51:03.997Z,11.82
2017-10-19T07:56:03.721Z,11.82
2017-10-19T08:01:03.599Z,11.79
2017-10-19T08:06:03.440Z,11.79
2017-10-19T08:11:03.578Z,11.79
2017-10-19T08:16:04.364Z,11.82
2017-10-19T08:21:04.222Z,11.82
2017-10-19T08:26:04.002Z,11.70
2017-10-19T08:31:03.775Z,11.84
2017-10-19T08:36:03.541Z,11.72
2017-10-19T08:41:03.747Z,11.72
2017-10-19T08:46:03.459Z,11.72
2017-10-19T08:51:04.258Z,11.84
2017-10-19T08:56:04.040Z,11.72
2017-10-19T09:01:03.869Z,11.84
2017-10-19T09:06:03.636Z,11.84
2017-10-19T09:11:03.801Z,11.82
2017-10-19T09:16:03.553Z,11.82
2017-10-19T09:21:03.396Z,11.84
2017-10-19T09:26:04.192Z,11.82
2017-10-19T09:31:03.963Z,11.82
2017-10-19T09:36:03.691Z,11.82
2017-10-19T09:41:03.859Z,11.72
2017-10-19T09:46:03.692Z,11.84
2017-10-19T09:51:03.507Z,11.84
2017-10-19T09:56:04.298Z,11.84
2017-10-19T10:01:04.090Z,11.84
2017-10-19T10:06:03.892Z,11.84
2017-10-19T10:11:04.024Z,11.84
2017-10-19T10:16:03.833Z,11.72
2017-10-19T10:21:03.682Z,11.84
2017-10-19T10:26:03.651Z,11.84
2017-10-19T10:31:03.453Z,11.86
2017-10-19T10:36:04.212Z,11.86
2017-10-19T10:41:04.373Z,11.84
2017-10-19T10:46:04.074Z,11.86
2017-10-19T10:51:03.848Z,11.74
2017-10-19T10:56:03.704Z,11.74
2017-10-19T11:01:03.448Z,11.77
2017-10-19T11:06:04.222Z,11.77
2017-10-19T11:11:03.446Z,11.77
2017-10-19T11:16:04.297Z,11.77
2017-10-19T11:21:04.151Z,11.77
2017-10-19T11:26:03.899Z,11.79
2017-10-19T11:31:03.702Z,11.79
2017-10-19T11:36:03.619Z,11.79
2017-10-19T11:41:03.822Z,11.79
2017-10-19T11:46:03.579Z,11.93
2017-10-19T11:51:03.482Z,11.77
2017-10-19T11:56:04.209Z,11.74
2017-10-19T12:01:03.990Z,11.74
2017-10-19T12:06:03.824Z,11.86
2017-10-19T12:11:04.127Z,11.74
2017-10-19T12:16:04.152Z,11.74
2017-10-19T12:21:04.043Z,11.74
2017-10-19T12:26:03.895Z,11.77
2017-10-19T12:31:04.644Z,11.77
2017-10-19T12:36:03.836Z,11.77
2017-10-19T12:41:04.239Z,11.77
2017-10-19T12:46:04.172Z,11.77
2017-10-19T12:51:03.965Z,11.93
2017-10-19T12:56:03.754Z,11.77
2017-10-19T13:01:04.234Z,11.79
2017-10-19T13:06:03.542Z,11.79
2017-10-19T13:11:03.996Z,11.77
2017-10-19T13:16:04.357Z,11.77
2017-10-19T13:21:03.951Z,11.77
2017-10-19T13:26:05.203Z,11.77
2017-10-19T13:31:04.093Z,11.77
2017-10-19T13:36:03.892Z,11.77
2017-10-19T13:41:04.084Z,11.77
2017-10-19T13:46:03.822Z,11.79
2017-10-19T13:51:03.943Z,11.79
2017-10-19T13:56:03.503Z,11.79
2017-10-19T14:01:04.258Z,11.67
2017-10-19T14:06:04.035Z,11.79
2017-10-19T14:11:04.210Z,11.79
2017-10-19T14:16:04.070Z,11.79
2017-10-19T14:21:04.302Z,11.67
2017-10-19T14:26:04.593Z,11.81
2017-10-19T14:31:03.970Z,11.81
2017-10-19T14:36:03.910Z,11.67
2017-10-19T14:41:04.148Z,11.67
2017-10-19T14:46:04.365Z,11.69
2017-10-19T14:51:04.080Z,11.69
2017-10-19T14:56:03.823Z,11.69
2017-10-19T15:01:03.639Z,11.69
2017-10-19T15:06:04.370Z,11.69
2017-10-19T15:11:03.559Z,11.69
2017-10-19T15:16:05.008Z,11.69
2017-10-19T15:21:04.448Z,11.67
2017-10-19T15:26:03.916Z,11.79
2017-10-19T15:31:03.773Z,11.81
2017-10-19T15:36:03.544Z,11.72
2017-10-19T15:41:04.148Z,11.69
2017-10-19T15:46:04.379Z,11.69
2017-10-19T15:51:03.813Z,11.69
2017-10-19T15:56:03.721Z,11.69
2017-10-19T16:01:03.454Z,11.69
2017-10-19T16:06:04.325Z,11.72
2017-10-19T16:11:03.535Z,11.69
2017-10-19T16:16:04.262Z,11.69
2017-10-19T16:21:04.101Z,11.72
2017-10-19T16:26:03.936Z,11.72
2017-10-19T16:31:03.731Z,11.69
2017-10-19T16:36:03.511Z,11.72
2017-10-19T16:41:04.021Z,11.72
2017-10-19T16:46:03.804Z,11.72
2017-10-19T16:51:03.546Z,11.72
2017-10-19T16:56:04.327Z,11.72
2017-10-19T17:01:04.137Z,11.72
2017-10-19T17:06:03.934Z,11.69
2017-10-19T17:11:04.168Z,11.67
2017-10-19T17:16:03.968Z,11.79
2017-10-19T17:21:04.097Z,11.77
2017-10-19T17:26:04.304Z,11.77
2017-10-19T17:31:04.054Z,11.77
2017-10-19T17:36:03.840Z,11.77
2017-10-19T17:41:04.181Z,11.79
2017-10-19T17:46:03.876Z,11.77
2017-10-19T17:51:03.946Z,11.79
2017-10-19T17:56:03.663Z,11.79
2017-10-19T18:01:03.468Z,11.79
2017-10-19T18:06:04.291Z,11.79
2017-10-19T18:11:04.770Z,11.79
2017-10-19T18:16:04.620Z,11.79
2017-10-19T18:21:04.229Z,11.79
2017-10-19T18:26:04.091Z,11.79
2017-10-19T18:31:05.101Z,11.67
2017-10-19T18:36:04.425Z,11.81
2017-10-19T18:41:03.916Z,11.67
2017-10-19T18:46:03.893Z,11.69
2017-10-19T18:51:04.314Z,11.67
2017-10-19T18:56:04.083Z,11.81
2017-10-19T19:01:04.439Z,11.79
2017-10-19T19:06:04.358Z,11.79
2017-10-19T19:11:03.749Z,11.79
2017-10-19T19:16:03.961Z,11.79
2017-10-19T19:21:05.569Z,11.79
2017-10-19T19:26:04.406Z,11.93
2017-10-19T19:31:04.978Z,11.77
2017-10-19T19:36:04.498Z,11.77
2017-10-19T19:41:04.692Z,11.77
2017-10-19T19:46:04.991Z,11.77
2017-10-19T19:51:04.242Z,11.77
2017-10-19T19:56:04.504Z,11.77
2017-10-19T20:01:04.107Z,11.79
2017-10-19T20:06:03.992Z,11.81
2017-10-19T20:11:04.605Z,11.79
2017-10-19T20:16:04.586Z,11.79
2017-10-19T20:21:04.166Z,11.79
2017-10-19T20:26:04.224Z,11.77
2017-10-19T20:31:04.202Z,11.77
2017-10-19T20:36:04.724Z,11.77
2017-10-19T20:41:04.389Z,11.77
2017-10-19T20:46:04.282Z,11.77
2017-10-19T20:51:04.320Z,11.77
2017-10-19T20:56:04.106Z,11.77
2017-10-19T21:01:03.834Z,11.77
2017-10-19T21:06:03.997Z,11.79
2017-10-19T21:11:04.233Z,11.79
2017-10-19T21:16:04.256Z,11.79
2017-10-19T21:21:04.530Z,11.79
2017-10-19T21:26:04.629Z,11.79
2017-10-19T21:31:04.295Z,11.81
2017-10-19T21:36:04.430Z,11.81
2017-10-19T21:41:03.977Z,11.81
2017-10-19T21:46:03.454Z,11.81
2017-10-19T21:51:04.257Z,11.81
2017-10-19T21:56:04.149Z,11.69
2017-10-19T22:01:03.959Z,11.69
2017-10-19T22:06:03.713Z,11.69
2017-10-19T22:11:03.964Z,11.69
2017-10-19T22:16:03.775Z,11.69
2017-10-19T22:21:03.567Z,11.69
2017-10-19T22:26:04.340Z,11.69
2017-10-19T22:31:04.122Z,11.69
2017-10-19T22:36:03.901Z,11.69
2017-10-19T22:41:04.119Z,11.69
2017-10-19T22:46:03.888Z,11.69
2017-10-19T22:51:03.623Z,11.69
2017-10-19T22:56:03.416Z,11.69
2017-10-19T23:01:04.171Z,11.69
2017-10-19T23:06:03.971Z,11.69
2017-10-19T23:11:04.160Z,11.72
2017-10-19T23:16:03.929Z,11.72
2017-10-19T23:21:03.798Z,11.69
2017-10-19T23:26:03.573Z,11.72
2017-10-19T23:31:04.376Z,11.72
2017-10-19T23:36:04.111Z,11.72
2017-10-19T23:41:04.335Z,11.72
2017-10-19T23:46:04.101Z,11.72
2017-10-19T23:51:03.856Z,11.72
2017-10-19T23:56:03.651Z,11.72
